Aviation Digital Data Service (ADDS)

Output produced by METARs form (1201 UTC 16 July 2019)
found at http://www.aviationweather.gov/metar/data/
 
TAF UDYZ 161102Z 1612/1712 04006KT CAVOK 
     TEMPO 1612/1622 VRB16G26KT SCT040CB